Time;durP1;ratioP1;P1;durP2;ratioP2;P2;SDS_P1;SDS_P2;PMS_P1;PMS_P2;Temp;Humidity;BMP_temperature;BMP_pressure;BME280_temperature;BME280_humidity;BME280_pressure;Samples;Min_cycle;Max_cycle;Signal;HPM_P1;HPM_P2
2024/04/09 00:01:24;;;;;;;1999.90;999.90;;;21.90;49.40;;;;;;5378828;26;20219;-71
2024/04/09 00:03:50;;;;;;;1999.90;999.90;;;21.90;48.50;;;;;;5378930;26;20219;-72
2024/04/09 00:24:45;;;;;;;1999.90;999.90;;;22.80;46.10;;;;;;6053646;21;20304;-72
2024/04/09 00:27:11;;;;;;;1999.90;999.90;;;22.80;46.20;;;;;;5275676;27;20238;-72
2024/04/09 00:29:39;;;;;;;1999.90;999.90;;;22.80;46.20;;;;;;5276593;27;20269;-75
2024/04/09 00:32:04;;;;;;;1999.90;999.90;;;22.80;46.30;;;;;;5276675;27;20219;-72
2024/04/09 00:34:31;;;;;;;1999.90;999.90;;;22.70;46.30;;;;;;5246943;27;20269;-72
2024/04/09 00:36:57;;;;;;;1999.90;999.90;;;22.70;46.30;;;;;;5276042;27;20235;-72
2024/04/09 00:39:25;;;;;;;1999.90;999.90;;;22.70;46.30;;;;;;5246772;27;20226;-72
2024/04/09 00:41:51;;;;;;;1999.90;999.90;;;22.60;46.20;;;;;;5246575;27;20252;-72
2024/04/09 00:44:16;;;;;;;1999.90;999.90;;;22.70;46.10;;;;;;5246823;27;20561;-72
2024/04/09 00:46:43;;;;;;;1999.90;999.90;;;22.70;46.00;;;;;;5275295;27;20276;-72
2024/04/09 00:49:13;;;;;;;1999.90;999.90;;;22.70;46.00;;;;;;5276427;27;20349;-72
2024/04/09 00:51:44;;;;;;;1999.90;999.90;;;22.70;46.10;;;;;;5276430;27;20649;-72
2024/04/09 00:54:11;;;;;;;1999.90;999.90;;;22.70;46.50;;;;;;5276887;27;20222;-71
2024/04/09 01:04:54;;;;;;;1999.90;999.90;;;22.50;47.00;;;;;;5343377;26;20750;-72
2024/04/09 01:07:20;;;;;;;1999.90;999.90;;;22.50;47.20;;;;;;5318016;21;20292;-72
2024/04/09 01:09:46;;;;;;;1999.90;999.90;;;22.40;47.20;;;;;;5279543;27;20226;-72
2024/04/09 01:12:12;;;;;;;1999.90;999.90;;;22.30;47.10;;;;;;5279519;27;20264;-72
2024/04/09 01:14:37;;;;;;;1999.90;999.90;;;22.30;47.00;;;;;;5279444;27;20269;-71
2024/04/09 01:17:03;;;;;;;1999.90;999.90;;;22.20;46.80;;;;;;5278329;27;20277;-72
2024/04/09 01:19:29;;;;;;;1999.90;999.90;;;22.20;46.80;;;;;;5279255;27;20211;-72
2024/04/09 01:21:55;;;;;;;1999.90;999.90;;;22.20;46.80;;;;;;5259956;27;20322;-72
2024/04/09 01:24:21;;;;;;;1999.90;999.90;;;22.30;46.80;;;;;;5279113;27;20245;-71
2024/04/09 01:26:49;;;;;;;1999.90;999.90;;;22.30;46.90;;;;;;5278013;27;20247;-71
2024/04/09 01:29:16;;;;;;;1999.90;999.90;;;22.30;47.00;;;;;;5279181;27;20227;-71
2024/04/09 01:31:41;;;;;;;1999.90;999.90;;;22.20;46.80;;;;;;5279325;27;20219;-71
2024/04/09 01:34:09;;;;;;;1999.90;999.90;;;22.20;46.70;;;;;;5278993;27;20348;-72
2024/04/09 01:44:55;;;;;;;1999.90;999.90;;;22.10;47.00;;;;;;5255817;25;20302;-72
2024/04/09 01:47:52;;;;;;;1999.90;999.90;;;22.10;47.30;;;;;;5245957;27;20679;-71
2024/04/09 01:50:18;;;;;;;1999.90;999.90;;;22.10;47.50;;;;;;5278864;27;20218;-71
2024/04/09 01:52:43;;;;;;;1999.90;999.90;;;22.00;47.80;;;;;;5278741;27;20298;-72
2024/04/09 01:55:09;;;;;;;1999.90;999.90;;;22.00;48.10;;;;;;5278443;27;20269;-72
2024/04/09 01:57:35;;;;;;;1999.90;999.90;;;22.00;48.40;;;;;;5277533;27;20269;-72
2024/04/09 02:00:11;;;;;;;1999.90;999.90;;;21.90;48.70;;;;;;5278248;27;20725;-72
2024/04/09 02:02:40;;;;;;;1999.90;999.90;;;21.90;48.90;;;;;;5278771;27;20274;-73
2024/04/09 02:05:07;;;;;;;1999.90;999.90;;;21.80;49.20;;;;;;5278671;27;20258;-71
2024/04/09 02:07:33;;;;;;;1999.90;999.90;;;21.70;49.50;;;;;;5278006;27;20276;-71
2024/04/09 02:09:59;;;;;;;1999.90;999.90;;;21.70;49.80;;;;;;5278949;27;20234;-72
2024/04/09 02:12:25;;;;;;;1999.90;999.90;;;21.60;50.10;;;;;;5278625;27;20226;-72
2024/04/09 02:14:50;;;;;;;1999.90;999.90;;;21.60;50.30;;;;;;5277887;27;20568;-71
2024/04/09 02:17:16;;;;;;;1999.90;999.90;;;21.50;50.60;;;;;;5277982;27;20240;-71
2024/04/09 02:19:42;;;;;;;1999.90;999.90;;;21.50;50.90;;;;;;5278550;27;20268;-72
2024/04/09 02:22:07;;;;;;;1999.90;999.90;;;21.40;51.10;;;;;;5272099;27;20237;-72
2024/04/09 02:24:34;;;;;;;1999.90;999.90;;;21.40;51.50;;;;;;5278650;27;20320;-71
2024/04/09 02:27:00;;;;;;;1999.90;999.90;;;21.30;51.90;;;;;;5243866;27;20238;-73
2024/04/09 02:29:25;;;;;;;1999.90;999.90;;;21.30;52.30;;;;;;5244827;27;20224;-71
2024/04/09 02:31:51;;;;;;;1999.90;999.90;;;21.20;52.70;;;;;;5244842;27;20215;-71
2024/04/09 02:34:17;;;;;;;1999.90;999.90;;;21.10;53.00;;;;;;5244736;27;20333;-72
2024/04/09 02:39:22;;;;;;;1999.90;999.90;;;20.90;53.60;;;;;;5279131;21;20880;-71
2024/04/09 02:41:47;;;;;;;1999.90;999.90;;;20.90;54.10;;;;;;5278503;27;20226;-71
2024/04/09 02:44:13;;;;;;;1999.90;999.90;;;20.80;54.30;;;;;;5298502;27;20700;-71
2024/04/09 02:46:44;;;;;;;1999.90;999.90;;;20.80;54.70;;;;;;5318018;21;20265;-71
2024/04/09 02:49:11;;;;;;;1999.90;999.90;;;20.80;55.10;;;;;;5312452;27;20738;-71
2024/04/09 02:51:36;;;;;;;1999.90;999.90;;;20.70;55.20;;;;;;5312334;27;20331;-71
2024/04/09 02:54:02;;;;;;;1999.90;999.90;;;20.70;55.50;;;;;;5312640;27;20235;-71
2024/04/09 02:56:27;;;;;;;1999.90;999.90;;;20.60;55.90;;;;;;5311204;26;20334;-71
2024/04/09 02:58:53;;;;;;;1999.90;999.90;;;20.50;56.20;;;;;;5312141;27;20220;-72
2024/04/09 03:01:19;;;;;;;1999.90;999.90;;;20.50;56.50;;;;;;5312164;27;20643;-71
2024/04/09 03:03:45;;;;;;;1999.90;999.90;;;20.50;57.00;;;;;;5312172;27;20271;-71
2024/04/09 03:06:12;;;;;;;1999.90;999.90;;;20.40;57.30;;;;;;5310768;26;20251;-71
2024/04/09 03:08:38;;;;;;;1999.90;999.90;;;20.30;57.80;;;;;;5281885;27;20232;-71
2024/04/09 03:11:17;;;;;;;1999.90;999.90;;;20.30;58.10;;;;;;5312149;27;20222;-71
2024/04/09 03:13:45;;;;;;;1999.90;999.90;;;20.20;58.60;;;;;;5312114;27;20584;-71
2024/04/09 03:16:21;;;;;;;1999.90;999.90;;;20.10;58.80;;;;;;5310884;27;20876;-71
2024/04/09 03:18:51;;;;;;;1999.90;999.90;;;19.90;59.40;;;;;;5306786;27;20277;-72
2024/04/09 03:21:17;;;;;;;1999.90;999.90;;;19.90;59.50;;;;;;5303205;27;20227;-72
2024/04/09 03:23:42;;;;;;;1999.90;999.90;;;19.80;59.80;;;;;;5281644;27;20242;-72
2024/04/09 03:26:14;;;;;;;1999.90;999.90;;;19.70;60.10;;;;;;5310613;26;20238;-72
2024/04/09 03:28:41;;;;;;;1999.90;999.90;;;19.60;60.40;;;;;;5311631;27;20226;-72
2024/04/09 03:31:08;;;;;;;1999.90;999.90;;;19.60;60.50;;;;;;5281463;27;20243;-72
2024/04/09 03:33:34;;;;;;;1999.90;999.90;;;19.60;60.60;;;;;;5311754;27;20301;-72
2024/04/09 03:36:01;;;;;;;1999.90;999.90;;;19.60;60.80;;;;;;5304174;27;20250;-72
2024/04/09 03:38:27;;;;;;;1999.90;999.90;;;19.50;61.10;;;;;;5303891;27;20247;-72
2024/04/09 03:40:57;;;;;;;1999.90;999.90;;;19.50;61.20;;;;;;5308988;27;20238;-72
2024/04/09 03:43:23;;;;;;;1999.90;999.90;;;19.50;61.50;;;;;;5311017;27;20233;-72
2024/04/09 03:46:15;;;;;;;1999.90;999.90;;;19.40;61.70;;;;;;5311476;27;20230;-72
2024/04/09 03:48:45;;;;;;;1999.90;999.90;;;19.40;62.30;;;;;;5311916;27;20219;-72
2024/04/09 03:51:13;;;;;;;1999.90;999.90;;;19.30;62.50;;;;;;5311435;27;20227;-72
2024/04/09 03:53:39;;;;;;;1999.90;999.90;;;19.20;63.10;;;;;;5311367;27;20712;-72
2024/04/09 03:59:21;;;;;;;1999.90;999.90;;;19.10;63.70;;;;;;5307827;21;20815;-71
2024/04/09 04:01:47;;;;;;;1999.90;999.90;;;19.00;64.20;;;;;;5277204;27;20293;-71
2024/04/09 04:04:13;;;;;;;1999.90;999.90;;;19.00;64.40;;;;;;5277097;27;20728;-71
2024/04/09 04:06:39;;;;;;;1999.90;999.90;;;19.00;64.80;;;;;;5275664;27;20282;-71
2024/04/09 04:09:08;;;;;;;1999.90;999.90;;;18.90;65.30;;;;;;5276900;27;20643;-71
2024/04/09 04:11:35;;;;;;;1999.90;999.90;;;18.80;66.40;;;;;;5260017;27;20286;-71
2024/04/09 04:14:01;;;;;;;1999.90;999.90;;;18.70;67.00;;;;;;5276479;27;20246;-71
2024/04/09 04:16:27;;;;;;;1999.90;999.90;;;18.60;67.60;;;;;;5347093;21;20366;-72
2024/04/09 04:18:52;;;;;;;1999.90;999.90;;;18.50;67.90;;;;;;5280730;27;20233;-71
2024/04/09 04:21:23;;;;;;;1999.90;999.90;;;18.50;68.10;;;;;;5311048;27;20631;-71
2024/04/09 04:23:56;;;;;;;1999.90;999.90;;;18.50;68.60;;;;;;5311249;27;20623;-74
2024/04/09 04:26:25;;;;;;;1999.90;999.90;;;18.40;69.10;;;;;;5329513;26;20232;-71
2024/04/09 04:28:52;;;;;;;1999.90;999.90;;;18.40;69.90;;;;;;5314655;26;21150;-71
2024/04/09 04:31:26;;;;;;;1999.90;999.90;;;18.40;70.30;;;;;;5345472;26;20339;-71
2024/04/09 04:33:52;;;;;;;1999.90;999.90;;;18.30;70.70;;;;;;5345617;26;20221;-71
2024/04/09 04:36:19;;;;;;;1999.90;999.90;;;18.30;70.90;;;;;;5313318;26;20362;-72
2024/04/09 04:38:46;;;;;;;1999.90;999.90;;;18.30;71.20;;;;;;5344096;26;20220;-71
2024/04/09 04:41:12;;;;;;;1999.90;999.90;;;18.30;71.40;;;;;;5345197;26;20221;-71
2024/04/09 04:43:38;;;;;;;1999.90;999.90;;;18.20;72.10;;;;;;5345453;26;20309;-71
2024/04/09 04:46:04;;;;;;;1999.90;999.90;;;18.20;72.60;;;;;;5325334;21;20305;-76
2024/04/09 04:48:30;;;;;;;1999.90;999.90;;;18.10;73.10;;;;;;5310775;27;20252;-71
2024/04/09 04:50:56;;;;;;;1999.90;999.90;;;18.00;73.50;;;;;;5280423;27;20563;-71
2024/04/09 04:53:22;;;;;;;1999.90;999.90;;;18.00;73.80;;;;;;5310694;27;20214;-71
2024/04/09 04:55:51;;;;;;;1999.90;999.90;;;18.00;74.40;;;;;;5309791;26;20233;-71
2024/04/09 04:58:20;;;;;;;1999.90;999.90;;;17.90;74.80;;;;;;5305574;27;20300;-71
2024/04/09 05:00:46;;;;;;;1999.90;999.90;;;17.90;75.20;;;;;;5310515;27;20234;-71
2024/04/09 05:03:12;;;;;;;1999.90;999.90;;;17.80;75.70;;;;;;5310314;27;20331;-71
2024/04/09 05:05:38;;;;;;;1999.90;999.90;;;17.80;76.20;;;;;;5310389;26;20234;-71
2024/04/09 05:08:04;;;;;;;1999.90;999.90;;;17.70;76.50;;;;;;5307381;27;20233;-71
2024/04/09 05:10:30;;;;;;;1999.90;999.90;;;17.70;76.90;;;;;;5309003;27;20252;-71
2024/04/09 05:12:56;;;;;;;1999.90;999.90;;;17.60;77.00;;;;;;5310247;27;20229;-71
2024/04/09 05:15:22;;;;;;;1999.90;999.90;;;17.60;77.30;;;;;;5279838;27;20720;-71
2024/04/09 05:17:49;;;;;;;1999.90;999.90;;;17.60;77.70;;;;;;5309064;27;20712;-71
2024/04/09 05:20:16;;;;;;;1999.90;999.90;;;17.60;77.80;;;;;;5310161;27;20276;-70
2024/04/09 05:22:48;;;;;;;1999.90;999.90;;;17.60;77.80;;;;;;5309956;27;20225;-71
2024/04/09 05:28:01;;;;;;;1999.90;999.90;;;17.50;78.10;;;;;;5408553;22;20294;-71
2024/04/09 05:30:27;;;;;;;1999.90;999.90;;;17.60;78.40;;;;;;5412713;26;20222;-72
2024/04/09 05:32:52;;;;;;;1999.90;999.90;;;17.60;78.20;;;;;;5414432;26;20285;-72
2024/04/09 05:35:21;;;;;;;1999.90;999.90;;;17.50;78.50;;;;;;5414477;26;20567;-71
2024/04/09 05:37:47;;;;;;;1999.90;999.90;;;17.50;78.90;;;;;;5413738;26;20556;-71
2024/04/09 05:40:12;;;;;;;1999.90;999.90;;;17.40;79.70;;;;;;5414628;26;20265;-71
2024/04/09 05:42:42;;;;;;;1999.90;999.90;;;17.40;80.00;;;;;;5414765;26;20323;-71
2024/04/09 05:47:41;;;;;;;1999.90;999.90;;;17.20;80.20;;;;;;5305856;26;20284;-71
2024/04/09 05:50:08;;;;;;;1999.90;999.90;;;17.20;80.40;;;;;;5281141;27;20221;-71
2024/04/09 05:52:35;;;;;;;1999.90;999.90;;;17.10;80.50;;;;;;5282806;27;20634;-71
2024/04/09 05:55:00;;;;;;;1999.90;999.90;;;17.00;80.60;;;;;;5313028;27;20214;-71
2024/04/09 05:57:26;;;;;;;1999.90;999.90;;;17.00;80.60;;;;;;5248034;27;20235;-71
2024/04/09 05:59:54;;;;;;;1999.90;999.90;;;16.90;80.50;;;;;;5278889;27;20922;-71
2024/04/09 06:02:21;;;;;;;1999.90;999.90;;;16.90;80.40;;;;;;5248985;27;20245;-71
2024/04/09 06:04:47;;;;;;;1999.90;999.90;;;16.90;80.30;;;;;;5278991;27;20214;-71
2024/04/09 06:07:13;;;;;;;1999.90;999.90;;;16.90;80.20;;;;;;5276934;27;20260;-71
2024/04/09 06:09:39;;;;;;;1999.90;999.90;;;16.90;80.20;;;;;;5267997;27;20241;-71
2024/04/09 06:12:04;;;;;;;1999.90;999.90;;;16.80;80.10;;;;;;5277568;27;20288;-71
2024/04/09 06:14:30;;;;;;;1999.90;999.90;;;16.80;80.10;;;;;;5277389;27;20225;-71
2024/04/09 06:16:56;;;;;;;1999.90;999.90;;;16.80;80.40;;;;;;5277105;27;20230;-71
2024/04/09 06:19:21;;;;;;;1999.90;999.90;;;16.70;80.40;;;;;;5306192;27;20232;-71
2024/04/09 06:21:47;;;;;;;1999.90;999.90;;;16.60;80.70;;;;;;5280719;27;20242;-71
2024/04/09 06:24:14;;;;;;;1999.90;999.90;;;16.60;81.20;;;;;;5271754;27;20328;-71
2024/04/09 06:29:16;;;;;;;1999.90;999.90;;;16.30;80.40;;;;;;1256547;21;20620;-71
2024/04/09 06:31:42;;;;;;;1999.90;999.90;;;16.10;78.90;;;;;;5306657;27;20296;-71
2024/04/09 06:34:09;;;;;;;1999.90;999.90;;;15.90;77.00;;;;;;5308845;27;20237;-70
2024/04/09 06:39:13;;;;;;;1999.90;999.90;;;15.60;75.40;;;;;;3484203;25;20278;-70
2024/04/09 06:41:39;;;;;;;1999.90;999.90;;;15.50;74.70;;;;;;5309421;27;20336;-70
2024/04/09 06:44:05;;;;;;;1999.90;999.90;;;15.40;74.10;;;;;;5308313;27;20243;-70
2024/04/09 06:46:31;;;;;;;1999.90;999.90;;;15.30;74.20;;;;;;5329064;26;20243;-70
2024/04/09 06:48:59;;;;;;;1999.90;999.90;;;15.20;74.00;;;;;;5339951;26;20237;-70
2024/04/09 06:51:31;;;;;;;1999.90;999.90;;;15.10;74.00;;;;;;5341384;26;20233;-70
2024/04/09 06:53:57;;;;;;;1999.90;999.90;;;15.10;73.90;;;;;;5346418;26;20238;-70
2024/04/09 06:56:23;;;;;;;1999.90;999.90;;;15.00;73.60;;;;;;5339708;26;20296;-70
2024/04/09 06:58:49;;;;;;;1999.90;999.90;;;15.00;73.50;;;;;;5336903;26;20280;-70
2024/04/09 07:01:15;;;;;;;1999.90;999.90;;;15.00;73.70;;;;;;5343158;26;20246;-70
2024/04/09 07:03:41;;;;;;;1999.90;999.90;;;15.00;73.80;;;;;;5341576;26;20578;-70
2024/04/09 07:08:42;;;;;;;1999.90;999.90;;;15.20;73.80;;;;;;1408207;24;20740;-70
2024/04/09 07:11:08;;;;;;;1999.90;999.90;;;15.20;73.80;;;;;;5346126;26;20217;-70
2024/04/09 07:13:34;;;;;;;1999.90;999.90;;;15.20;73.60;;;;;;5378067;26;20227;-70
2024/04/09 07:18:35;;;;;;;1999.90;999.90;;;15.30;73.80;;;;;;5019277;24;20287;-70
2024/04/09 07:21:01;;;;;;;1999.90;999.90;;;15.30;73.90;;;;;;5380876;26;20218;-70
2024/04/09 07:23:27;;;;;;;1999.90;999.90;;;15.30;73.90;;;;;;5381014;26;20249;-70
2024/04/09 07:25:52;;;;;;;1999.90;999.90;;;15.30;74.20;;;;;;5336966;26;20239;-70
2024/04/09 07:28:18;;;;;;;1999.90;999.90;;;15.30;74.30;;;;;;5345247;26;20215;-70
2024/04/09 07:30:44;;;;;;;1999.90;999.90;;;15.20;74.30;;;;;;5345767;26;20219;-72
2024/04/09 07:33:09;;;;;;;1999.90;999.90;;;15.20;74.60;;;;;;5345808;26;20308;-70
2024/04/09 07:35:36;;;;;;;1999.90;999.90;;;15.10;74.80;;;;;;5345292;26;20229;-70
2024/04/09 07:38:03;;;;;;;1999.90;999.90;;;15.00;75.10;;;;;;5345342;26;20221;-70
2024/04/09 07:40:28;;;;;;;1999.90;999.90;;;14.90;75.50;;;;;;5315068;26;20551;-70
2024/04/09 07:42:55;;;;;;;1999.90;999.90;;;14.90;75.70;;;;;;5345737;26;20289;-70
2024/04/09 07:45:20;;;;;;;1999.90;999.90;;;14.80;75.90;;;;;;5345422;26;20554;-70
2024/04/09 07:47:51;;;;;;;1999.90;999.90;;;14.80;76.10;;;;;;5345101;26;20224;-70
2024/04/09 07:50:17;;;;;;;1999.90;999.90;;;14.70;76.20;;;;;;5314964;26;20223;-70
2024/04/09 07:52:43;;;;;;;1999.90;999.90;;;14.60;76.30;;;;;;5345365;26;20285;-69
2024/04/09 07:55:08;;;;;;;1999.90;999.90;;;14.60;76.50;;;;;;5345263;26;20237;-69
2024/04/09 07:57:35;;;;;;;1999.90;999.90;;;14.50;76.70;;;;;;5344517;26;20239;-69
2024/04/09 08:00:01;;;;;;;1999.90;999.90;;;14.50;76.90;;;;;;5364677;26;20399;-69
2024/04/09 08:02:26;;;;;;;1999.90;999.90;;;14.50;77.00;;;;;;5380135;26;20232;-69
2024/04/09 08:04:52;;;;;;;1999.90;999.90;;;14.60;77.30;;;;;;5380260;26;20692;-70
2024/04/09 08:07:18;;;;;;;1999.90;999.90;;;14.60;77.50;;;;;;5371216;26;20233;-69
2024/04/09 08:09:43;;;;;;;1999.90;999.90;;;14.70;77.60;;;;;;5331686;26;20301;-69
2024/04/09 08:12:09;;;;;;;1999.90;999.90;;;14.60;77.30;;;;;;5341685;26;20229;-70
2024/04/09 08:14:35;;;;;;;1999.90;999.90;;;14.60;77.50;;;;;;5324795;26;20719;-70
2024/04/09 08:17:00;;;;;;;1999.90;999.90;;;14.50;77.60;;;;;;5313218;26;20649;-70
2024/04/09 08:19:28;;;;;;;1999.90;999.90;;;14.50;77.70;;;;;;5314615;26;20244;-70
2024/04/09 08:21:54;;;;;;;1546.03;691.90;;;14.40;77.80;;;;;;5337325;26;20322;-70
2024/04/09 08:24:20;;;;;;;1999.90;999.90;;;14.30;77.80;;;;;;5333376;26;20757;-70
2024/04/09 08:26:46;;;;;;;1999.90;999.90;;;14.20;78.00;;;;;;5343923;26;20228;-69
2024/04/09 08:29:16;;;;;;;1999.90;999.90;;;14.10;78.10;;;;;;5342811;26;20228;-69
2024/04/09 08:31:44;;;;;;;1999.90;999.90;;;14.10;78.10;;;;;;5344747;26;20719;-69
2024/04/09 08:34:11;;;;;;;1999.90;999.90;;;14.10;78.10;;;;;;5344943;26;20622;-69
2024/04/09 08:36:37;;;;;;;1999.90;999.90;;;14.10;77.80;;;;;;5343952;26;20226;-69
2024/04/09 08:39:04;;;;;;;1999.90;999.90;;;14.00;77.70;;;;;;5344751;26;20220;-69
2024/04/09 08:41:30;;;;;;;1999.90;999.90;;;14.00;77.70;;;;;;5344458;26;20216;-69
2024/04/09 08:43:59;;;;;;;1999.90;999.90;;;13.90;77.50;;;;;;5344591;26;20252;-69
2024/04/09 08:46:30;;;;;;;1999.90;999.90;;;13.90;77.50;;;;;;5343926;26;20224;-69
2024/04/09 08:48:56;;;;;;;1999.90;999.90;;;13.90;77.50;;;;;;5344819;26;20271;-69
2024/04/09 08:51:22;;;;;;;1999.90;999.90;;;13.90;77.30;;;;;;5344289;26;20220;-69
2024/04/09 08:53:48;;;;;;;912.57;363.70;;;14.00;77.10;;;;;;5331746;26;20313;-69
2024/04/09 08:56:14;;;;;;;1999.90;999.90;;;14.10;76.60;;;;;;5340210;26;20233;-69
2024/04/09 08:58:40;;;;;;;1999.90;999.90;;;14.20;76.40;;;;;;5314126;26;20317;-69
2024/04/09 09:01:05;;;;;;;1535.03;683.30;;;14.40;76.40;;;;;;5311768;26;20221;-70
2024/04/09 09:03:31;;;;;;;1999.90;999.90;;;14.60;75.90;;;;;;5344369;26;20742;-70
2024/04/09 09:06:06;;;;;;;1999.90;999.90;;;14.70;75.60;;;;;;5330225;26;20285;-70
2024/04/09 09:08:42;;;;;;;1999.90;999.90;;;14.90;75.30;;;;;;5309736;27;20225;-70
2024/04/09 09:11:09;;;;;;;1999.90;999.90;;;15.20;74.60;;;;;;5309484;27;20229;-69
2024/04/09 09:13:35;;;;;;;1999.90;999.90;;;15.30;74.00;;;;;;5339815;26;20279;-70
2024/04/09 09:16:02;;;;;;;1999.90;999.90;;;15.40;73.50;;;;;;5343609;26;20230;-69
2024/04/09 09:18:28;;;;;;;1999.90;999.90;;;15.40;72.90;;;;;;5344504;26;20238;-69
2024/04/09 09:21:01;;;;;;;1999.90;999.90;;;15.30;72.70;;;;;;5344314;26;20255;-69
2024/04/09 09:23:26;;;;;;;1999.90;999.90;;;15.30;72.80;;;;;;5344681;26;20229;-69
2024/04/09 09:25:54;;;;;;;1999.90;999.90;;;15.30;72.40;;;;;;5346909;26;20234;-69
2024/04/09 09:28:22;;;;;;;1999.90;999.90;;;15.20;72.10;;;;;;5346798;26;20567;-68
2024/04/09 09:30:48;;;;;;;1999.90;999.90;;;15.10;71.90;;;;;;5347236;26;20228;-69
2024/04/09 09:33:19;;;;;;;1999.90;999.90;;;15.00;71.20;;;;;;5347629;26;20382;-68
2024/04/09 09:35:50;;;;;;;1999.90;999.90;;;14.80;71.00;;;;;;5347478;26;20228;-68
2024/04/09 09:38:26;;;;;;;1999.90;999.90;;;14.60;71.30;;;;;;5346726;26;20288;-68
2024/04/09 09:40:53;;;;;;;1999.90;999.90;;;14.50;71.70;;;;;;5340929;26;20234;-68
2024/04/09 09:43:23;;;;;;;1999.90;999.90;;;14.40;72.20;;;;;;5347479;26;20806;-69
2024/04/09 09:48:24;;;;;;;1999.90;999.90;;;14.30;73.50;;;;;;5340048;21;20297;-68
2024/04/09 09:50:50;;;;;;;1432.93;409.27;;;14.10;74.10;;;;;;5312810;27;20268;-68
2024/04/09 09:53:19;;;;;;;1999.90;999.90;;;14.10;74.50;;;;;;5312414;27;20217;-68
2024/04/09 09:55:47;;;;;;;1999.90;999.90;;;14.00;74.90;;;;;;5337833;21;20266;-69
2024/04/09 09:58:20;;;;;;;1999.90;999.90;;;13.90;75.00;;;;;;5311800;27;20751;-68
2024/04/09 10:00:49;;;;;;;1999.90;999.90;;;13.70;75.60;;;;;;5312544;27;20352;-68
2024/04/09 10:03:16;;;;;;;1999.90;999.90;;;13.70;76.00;;;;;;5312729;27;20225;-70
2024/04/09 10:05:42;;;;;;;1999.90;999.90;;;13.80;76.90;;;;;;5312678;26;20245;-70
2024/04/09 10:08:22;;;;;;;1999.90;999.90;;;13.80;76.30;;;;;;5312323;27;20392;-68
2024/04/09 10:10:49;;;;;;;1999.90;999.90;;;13.90;76.40;;;;;;5312986;27;20348;-68
2024/04/09 10:13:24;;;;;;;1999.90;999.90;;;13.90;76.50;;;;;;5312803;27;20275;-67
2024/04/09 10:15:50;;;;;;;1999.90;999.90;;;14.00;76.40;;;;;;5282319;27;20605;-68
2024/04/09 10:18:33;;;;;;;1861.67;287.87;;;14.00;76.30;;;;;;5311952;27;20273;-68
2024/04/09 10:20:59;;;;;;;1999.90;999.90;;;14.00;76.00;;;;;;5312755;27;20270;-68
2024/04/09 10:23:25;;;;;;;1999.90;999.90;;;14.00;75.60;;;;;;5312938;27;20226;-68
2024/04/09 10:25:50;;;;;;;1999.90;999.90;;;14.00;75.70;;;;;;5312430;26;20237;-68
2024/04/09 10:28:34;;;;;;;1999.90;999.90;;;14.00;75.40;;;;;;5311845;27;20693;-68
2024/04/09 10:31:12;;;;;;;1999.90;999.90;;;13.90;75.00;;;;;;5312715;27;20831;-68
2024/04/09 10:33:39;;;;;;;1813.40;717.83;;;13.90;75.10;;;;;;5312699;27;20217;-68
2024/04/09 10:36:07;;;;;;;1999.90;999.90;;;13.90;75.20;;;;;;5311024;26;20275;-68
2024/04/09 10:38:33;;;;;;;1147.57;391.80;;;13.90;75.00;;;;;;5312310;27;20218;-67
2024/04/09 10:41:00;;;;;;;562.13;75.00;;;13.90;74.80;;;;;;5312158;27;20335;-67
2024/04/09 10:43:28;;;;;;;1999.90;999.90;;;14.00;74.70;;;;;;5312620;27;20218;-68
2024/04/09 10:46:04;;;;;;;1142.17;394.40;;;14.00;74.30;;;;;;5317385;22;20304;-68
2024/04/09 10:48:31;;;;;;;1999.90;999.90;;;14.00;74.20;;;;;;5381797;26;20634;-69
2024/04/09 10:50:58;;;;;;;1999.90;999.90;;;14.00;74.20;;;;;;5381429;26;20708;-68
2024/04/09 10:53:23;;;;;;;1999.90;999.90;;;14.00;73.90;;;;;;5381749;26;20216;-68
2024/04/09 10:55:49;;;;;;;1999.90;999.90;;;14.00;73.90;;;;;;5381648;26;20286;-68
2024/04/09 10:58:17;;;;;;;1999.90;999.90;;;14.00;73.90;;;;;;5380946;26;20215;-68
2024/04/09 11:00:43;;;;;;;1533.27;692.13;;;14.00;73.60;;;;;;5381611;26;20227;-68
2024/04/09 11:03:09;;;;;;;1999.90;999.90;;;14.00;73.20;;;;;;5382026;26;20267;-68
2024/04/09 11:05:38;;;;;;;1999.90;999.90;;;14.00;72.50;;;;;;5381519;26;20239;-68
2024/04/09 11:08:04;;;;;;;1999.90;999.90;;;14.10;72.70;;;;;;5381063;26;20326;-68
2024/04/09 11:10:30;;;;;;;1507.40;684.93;;;14.30;72.30;;;;;;5381683;26;20219;-68
2024/04/09 11:12:56;;;;;;;1999.90;999.90;;;14.60;72.00;;;;;;5381300;26;20282;-68
2024/04/09 11:18:08;;;;;;;1999.90;999.90;;;14.90;70.80;;;;;;1526796;24;20284;-68
2024/04/09 11:20:33;;;;;;;1999.90;999.90;;;15.10;70.50;;;;;;5416890;26;20658;-68
2024/04/09 11:23:00;;;;;;;1999.90;999.90;;;15.20;69.90;;;;;;5416607;26;20323;-68
2024/04/09 11:25:26;;;;;;;1999.90;999.90;;;15.40;70.10;;;;;;5416496;26;20269;-69
2024/04/09 11:27:53;;;;;;;1999.90;999.90;;;15.70;70.60;;;;;;5415811;26;20683;-69
2024/04/09 11:30:29;;;;;;;1999.90;999.90;;;16.00;69.50;;;;;;5416644;26;20211;-69
2024/04/09 11:32:56;;;;;;;1999.90;999.90;;;16.10;67.80;;;;;;5384949;26;20227;-68
2024/04/09 11:40:33;;;;;;;1999.90;999.90;;;16.00;66.50;;;;;;5481356;21;20302;-69
2024/04/09 11:42:59;;;;;;;1999.90;999.90;;;16.10;66.20;;;;;;5275044;27;20235;-68
2024/04/09 11:48:00;;;;;;;1999.90;999.90;;;16.10;65.00;;;;;;5319462;21;20306;-69
2024/04/09 11:50:27;;;;;;;1999.90;999.90;;;16.10;64.70;;;;;;5277616;27;20329;-69
2024/04/09 11:52:53;;;;;;;1999.90;999.90;;;16.10;64.00;;;;;;5277281;27;20224;-69
2024/04/09 11:55:18;;;;;;;1999.90;999.90;;;16.20;64.10;;;;;;5277085;27;20224;-69
2024/04/09 11:57:46;;;;;;;1999.90;999.90;;;16.20;64.30;;;;;;5276082;27;20269;-69
2024/04/09 12:00:12;;;;;;;1999.90;999.90;;;16.20;64.40;;;;;;5277023;27;20654;-69
2024/04/09 12:02:42;;;;;;;1999.90;999.90;;;16.30;64.50;;;;;;5276755;27;20223;-69
2024/04/09 12:07:43;;;;;;;1999.90;999.90;;;16.40;64.20;;;;;;1509977;25;20253;-69
2024/04/09 12:10:10;;;;;;;1999.90;999.90;;;16.40;64.00;;;;;;5345515;26;20217;-69
2024/04/09 12:12:36;;;;;;;1999.90;999.90;;;16.30;63.60;;;;;;5345196;26;20229;-68
2024/04/09 12:15:05;;;;;;;1999.90;999.90;;;16.30;63.50;;;;;;5344767;26;20214;-69
2024/04/09 12:17:31;;;;;;;1999.90;999.90;;;16.20;63.60;;;;;;5310119;27;20220;-68
2024/04/09 12:19:57;;;;;;;1999.90;999.90;;;16.10;63.30;;;;;;5310688;27;20261;-69
2024/04/09 12:22:23;;;;;;;1999.90;999.90;;;16.10;63.10;;;;;;5310810;27;20259;-68
2024/04/09 12:24:49;;;;;;;1999.90;999.90;;;16.00;62.80;;;;;;5311071;27;20266;-69
2024/04/09 12:27:15;;;;;;;1999.90;999.90;;;16.00;62.30;;;;;;5391476;21;20264;-69
2024/04/09 12:29:41;;;;;;;1999.90;999.90;;;16.00;62.70;;;;;;5414271;26;20239;-68
2024/04/09 12:32:08;;;;;;;1999.90;999.90;;;16.10;62.60;;;;;;5415300;26;20208;-68
2024/04/09 12:34:34;;;;;;;1999.90;999.90;;;16.10;62.00;;;;;;5415342;26;20259;-69
2024/04/09 12:37:00;;;;;;;1999.90;999.90;;;16.00;61.00;;;;;;5414508;26;20224;-68
2024/04/09 12:39:30;;;;;;;1999.90;999.90;;;16.00;61.30;;;;;;5415329;26;20332;-68
2024/04/09 12:41:56;;;;;;;1999.90;999.90;;;16.10;61.50;;;;;;5415011;26;20262;-69
2024/04/09 12:44:22;;;;;;;1999.90;999.90;;;16.20;61.10;;;;;;5415141;26;20217;-68
2024/04/09 12:46:48;;;;;;;1999.90;999.90;;;16.20;61.00;;;;;;5319901;21;20597;-69
2024/04/09 12:49:15;;;;;;;1999.90;999.90;;;16.10;60.40;;;;;;5276248;27;20335;-68
2024/04/09 12:51:41;;;;;;;1999.90;999.90;;;16.10;59.90;;;;;;5276053;27;20679;-68
2024/04/09 12:54:07;;;;;;;1999.90;999.90;;;16.00;60.20;;;;;;5276007;27;20268;-69
2024/04/09 12:56:33;;;;;;;1999.90;999.90;;;15.90;59.20;;;;;;5312012;21;20329;-69
2024/04/09 12:58:58;;;;;;;1999.90;999.90;;;15.90;59.20;;;;;;5311642;27;20266;-69
2024/04/09 13:01:24;;;;;;;1999.90;999.90;;;16.00;59.00;;;;;;5313547;27;20613;-68
2024/04/09 13:03:50;;;;;;;1999.90;999.90;;;16.00;58.50;;;;;;5298311;27;20231;-69
2024/04/09 13:06:16;;;;;;;1999.90;999.90;;;16.10;58.30;;;;;;5301822;27;20275;-68
2024/04/09 13:08:42;;;;;;;1999.90;999.90;;;16.20;58.10;;;;;;5295438;27;20240;-69
2024/04/09 13:11:08;;;;;;;1999.90;999.90;;;16.20;58.10;;;;;;5294779;27;20634;-69